Time;durP1;ratioP1;P1;durP2;ratioP2;P2;SDS_P1;SDS_P2;PMS_P1;PMS_P2;Temp;Humidity;BMP_temperature;BMP_pressure;BME280_temperature;BME280_humidity;BME280_pressure;Samples;Min_cycle;Max_cycle;Signal;HPM_P1;HPM_P2
2021/03/12 00:01:44;;;;;;;0.20;0.20;;;;;;;;;;5103126;28;20277;-63
2021/03/12 00:04:09;;;;;;;0.20;0.20;;;;;;;;;;5091921;28;20305;-65
2021/03/12 00:06:37;;;;;;;0.20;0.20;;;;;;;;;;5102076;28;20093;-62
2021/03/12 00:09:03;;;;;;;0.20;0.20;;;;;;;;;;5099988;28;20292;-62
2021/03/12 00:11:29;;;;;;;0.20;0.20;;;;;;;;;;5101245;28;20035;-62
2021/03/12 00:13:54;;;;;;;0.20;0.20;;;;;;;;;;5094205;28;20521;-62
2021/03/12 00:16:19;;;;;;;0.20;0.20;;;;;;;;;;5102607;28;20028;-62
2021/03/12 00:18:44;;;;;;;0.20;0.20;;;;;;;;;;5095881;28;20035;-63
2021/03/12 00:21:10;;;;;;;0.20;0.20;;;;;;;;;;5100052;28;20105;-63
2021/03/12 00:23:35;;;;;;;0.20;0.20;;;;;;;;;;5094170;28;20027;-62
2021/03/12 00:26:00;;;;;;;0.20;0.20;;;;;;;;;;5098763;28;20879;-63
2021/03/12 00:28:26;;;;;;;0.20;0.20;;;;;;;;;;5101168;28;20027;-63
2021/03/12 00:30:51;;;;;;;0.20;0.20;;;;;;;;;;5100979;28;20016;-63
2021/03/12 00:33:16;;;;;;;0.20;0.20;;;;;;;;;;5096240;28;20035;-62
2021/03/12 00:35:43;;;;;;;0.20;0.20;;;;;;;;;;5085115;28;20027;-63
2021/03/12 00:38:12;;;;;;;0.20;0.20;;;;;;;;;;5093909;28;20387;-63
2021/03/12 00:40:38;;;;;;;0.20;0.20;;;;;;;;;;5095312;28;20019;-63
2021/03/12 00:43:03;;;;;;;0.20;0.20;;;;;;;;;;5096479;28;20028;-62
2021/03/12 00:45:31;;;;;;;0.20;0.20;;;;;;;;;;5091685;28;20048;-62
2021/03/12 00:47:57;;;;;;;0.20;0.20;;;;;;;;;;5100010;28;20043;-62
2021/03/12 00:50:24;;;;;;;0.20;0.20;;;;;;;;;;5096683;28;20691;-63
2021/03/12 00:52:49;;;;;;;0.20;0.20;;;;;;;;;;5085626;28;20034;-62
2021/03/12 00:55:14;;;;;;;0.20;0.20;;;;;;;;;;5084492;28;20666;-62
2021/03/12 00:57:39;;;;;;;0.20;0.20;;;;;;;;;;5098146;28;20374;-63
2021/03/12 01:00:05;;;;;;;0.20;0.20;;;;;;;;;;5093692;28;20724;-63
2021/03/12 01:02:30;;;;;;;0.20;0.20;;;;;;;;;;5087906;28;20028;-64
2021/03/12 01:04:55;;;;;;;0.20;0.20;;;;;;;;;;5097255;28;20201;-64
2021/03/12 01:07:23;;;;;;;0.20;0.20;;;;;;;;;;5095568;28;20021;-64
2021/03/12 01:09:48;;;;;;;0.20;0.20;;;;;;;;;;5105829;28;20275;-65
2021/03/12 01:12:14;;;;;;;0.20;0.20;;;;;;;;;;5101264;28;20467;-65
2021/03/12 01:14:39;;;;;;;0.20;0.20;;;;;;;;;;5094951;28;20028;-65
2021/03/12 01:17:04;;;;;;;0.20;0.20;;;;;;;;;;5088534;28;20034;-65
2021/03/12 01:19:29;;;;;;;0.20;0.20;;;;;;;;;;5087929;28;20280;-65
2021/03/12 01:21:54;;;;;;;0.20;0.20;;;;;;;;;;5090210;28;20539;-65
2021/03/12 01:24:19;;;;;;;0.20;0.20;;;;;;;;;;5087721;28;20442;-65
2021/03/12 01:26:45;;;;;;;0.20;0.20;;;;;;;;;;5086520;28;20920;-65
2021/03/12 01:29:10;;;;;;;0.20;0.20;;;;;;;;;;5083534;28;20027;-65
2021/03/12 01:31:35;;;;;;;0.20;0.20;;;;;;;;;;5105841;28;20026;-65
2021/03/12 01:34:00;;;;;;;0.20;0.20;;;;;;;;;;5097802;28;20020;-65
2021/03/12 01:36:26;;;;;;;0.20;0.20;;;;;;;;;;5089547;28;20270;-65
2021/03/12 01:38:51;;;;;;;0.20;0.20;;;;;;;;;;5075064;28;20487;-65
2021/03/12 01:41:16;;;;;;;0.23;0.23;;;;;;;;;;5093566;28;20281;-64
2021/03/12 01:43:41;;;;;;;0.20;0.20;;;;;;;;;;5106240;28;20777;-65
2021/03/12 01:46:06;;;;;;;0.20;0.20;;;;;;;;;;5097845;28;20347;-65
2021/03/12 01:48:31;;;;;;;0.20;0.20;;;;;;;;;;5089986;28;20296;-64
2021/03/12 01:50:58;;;;;;;0.20;0.20;;;;;;;;;;5087183;28;20778;-65
2021/03/12 01:53:23;;;;;;;0.20;0.20;;;;;;;;;;5088603;28;20520;-65
2021/03/12 01:55:49;;;;;;;0.20;0.20;;;;;;;;;;5090003;28;20115;-65
2021/03/12 01:58:14;;;;;;;0.20;0.20;;;;;;;;;;5088753;28;20027;-64
2021/03/12 02:00:39;;;;;;;0.20;0.20;;;;;;;;;;5090184;28;20077;-65
2021/03/12 02:03:06;;;;;;;0.20;0.20;;;;;;;;;;5090328;28;20024;-65
2021/03/12 02:05:32;;;;;;;0.20;0.20;;;;;;;;;;5073825;28;20130;-65
2021/03/12 02:07:57;;;;;;;0.20;0.20;;;;;;;;;;5091618;28;20103;-65
2021/03/12 02:10:26;;;;;;;0.20;0.20;;;;;;;;;;5092236;28;20085;-65
2021/03/12 02:12:56;;;;;;;0.20;0.20;;;;;;;;;;5098910;28;20356;-65
2021/03/12 02:15:34;;;;;;;0.20;0.20;;;;;;;;;;5097587;28;20092;-64
2021/03/12 02:18:02;;;;;;;0.20;0.20;;;;;;;;;;5112715;28;20035;-63
2021/03/12 02:20:30;;;;;;;0.20;0.20;;;;;;;;;;5108340;28;20088;-64
2021/03/12 02:23:10;;;;;;;0.20;0.20;;;;;;;;;;5099267;28;20128;-64
2021/03/12 02:25:36;;;;;;;0.20;0.20;;;;;;;;;;5092319;28;20020;-64
2021/03/12 02:28:02;;;;;;;0.20;0.20;;;;;;;;;;5095692;28;20035;-64
2021/03/12 02:30:27;;;;;;;0.20;0.20;;;;;;;;;;5092699;28;20410;-64
2021/03/12 02:32:52;;;;;;;0.20;0.20;;;;;;;;;;5081590;28;20040;-64
2021/03/12 02:35:17;;;;;;;0.20;0.20;;;;;;;;;;5093294;28;20456;-64
2021/03/12 02:37:43;;;;;;;0.28;0.28;;;;;;;;;;5097335;28;20026;-63
2021/03/12 02:40:08;;;;;;;0.30;0.30;;;;;;;;;;5095003;28;20035;-63
2021/03/12 02:42:34;;;;;;;0.20;0.20;;;;;;;;;;5103272;28;20023;-64
2021/03/12 02:44:59;;;;;;;0.20;0.20;;;;;;;;;;5091673;28;20127;-64
2021/03/12 02:47:29;;;;;;;0.28;0.28;;;;;;;;;;5091900;28;20043;-64
2021/03/12 02:49:54;;;;;;;0.20;0.20;;;;;;;;;;5113278;28;20023;-64
2021/03/12 02:52:19;;;;;;;0.20;0.20;;;;;;;;;;5099713;28;20014;-64
2021/03/12 02:54:45;;;;;;;0.20;0.20;;;;;;;;;;5094227;28;20642;-64
2021/03/12 02:57:11;;;;;;;0.20;0.20;;;;;;;;;;5096683;28;20012;-64
2021/03/12 02:59:37;;;;;;;0.30;0.30;;;;;;;;;;5075132;28;20437;-64
2021/03/12 03:02:02;;;;;;;0.28;0.28;;;;;;;;;;5079737;28;20031;-64
2021/03/12 03:04:27;;;;;;;0.20;0.20;;;;;;;;;;5106260;28;20487;-64
2021/03/12 03:06:52;;;;;;;0.30;0.30;;;;;;;;;;5104245;28;20063;-64
2021/03/12 03:09:18;;;;;;;0.27;0.27;;;;;;;;;;5088061;28;20050;-64
2021/03/12 03:11:44;;;;;;;0.30;0.30;;;;;;;;;;5107773;28;20274;-64
2021/03/12 03:14:09;;;;;;;0.20;0.20;;;;;;;;;;5093258;28;20027;-64
2021/03/12 03:16:36;;;;;;;0.30;0.30;;;;;;;;;;5091692;28;20016;-64
2021/03/12 03:19:01;;;;;;;0.20;0.20;;;;;;;;;;5092677;28;20153;-65
2021/03/12 03:21:26;;;;;;;0.20;0.20;;;;;;;;;;5092534;28;20107;-64
2021/03/12 03:23:51;;;;;;;0.20;0.20;;;;;;;;;;5101540;28;20483;-64
2021/03/12 03:26:16;;;;;;;0.20;0.20;;;;;;;;;;5091021;28;20153;-64
2021/03/12 03:28:44;;;;;;;0.30;0.30;;;;;;;;;;5075641;28;20283;-64
2021/03/12 03:31:09;;;;;;;0.20;0.20;;;;;;;;;;5093375;28;20030;-64
2021/03/12 03:33:37;;;;;;;0.20;0.20;;;;;;;;;;5097182;28;20103;-64
2021/03/12 03:36:03;;;;;;;0.30;0.30;;;;;;;;;;5106484;28;20019;-64
2021/03/12 03:38:28;;;;;;;0.30;0.30;;;;;;;;;;5096571;28;20027;-64
2021/03/12 03:40:54;;;;;;;0.20;0.20;;;;;;;;;;5089214;28;20543;-64
2021/03/12 03:43:23;;;;;;;0.20;0.20;;;;;;;;;;5094086;28;20031;-63
2021/03/12 03:45:48;;;;;;;0.20;0.20;;;;;;;;;;5102566;28;20040;-64
2021/03/12 03:48:13;;;;;;;0.20;0.20;;;;;;;;;;5076342;28;20093;-64
2021/03/12 03:50:38;;;;;;;0.30;0.30;;;;;;;;;;5109730;28;20047;-64
2021/03/12 03:53:04;;;;;;;0.30;0.30;;;;;;;;;;5075308;28;20040;-63
2021/03/12 03:55:29;;;;;;;0.20;0.20;;;;;;;;;;5097951;28;20099;-63
2021/03/12 03:57:55;;;;;;;0.20;0.20;;;;;;;;;;5103516;28;20034;-63
2021/03/12 04:00:20;;;;;;;0.22;0.22;;;;;;;;;;5103500;28;20023;-64
2021/03/12 04:02:45;;;;;;;0.20;0.20;;;;;;;;;;5104590;28;20024;-63
2021/03/12 04:05:11;;;;;;;0.20;0.20;;;;;;;;;;5091293;28;20024;-64
2021/03/12 04:07:36;;;;;;;0.20;0.20;;;;;;;;;;5102436;28;20044;-64
2021/03/12 04:10:02;;;;;;;0.20;0.20;;;;;;;;;;5109781;28;20031;-64
2021/03/12 04:12:27;;;;;;;0.20;0.20;;;;;;;;;;5096990;28;20746;-64
2021/03/12 04:14:52;;;;;;;0.20;0.20;;;;;;;;;;5105376;28;20036;-64
2021/03/12 04:17:17;;;;;;;0.20;0.20;;;;;;;;;;5085273;28;20325;-64
2021/03/12 04:19:43;;;;;;;0.20;0.20;;;;;;;;;;5086882;28;20025;-64
2021/03/12 04:22:08;;;;;;;0.20;0.20;;;;;;;;;;5110143;28;20341;-64
2021/03/12 04:24:33;;;;;;;0.20;0.20;;;;;;;;;;5100608;28;20028;-64
2021/03/12 04:26:59;;;;;;;0.20;0.20;;;;;;;;;;5101131;28;20030;-64
2021/03/12 04:29:24;;;;;;;0.20;0.20;;;;;;;;;;5092049;28;20107;-64
2021/03/12 04:31:49;;;;;;;0.20;0.20;;;;;;;;;;5088091;28;20028;-64
2021/03/12 04:34:14;;;;;;;0.20;0.20;;;;;;;;;;5074062;28;20634;-64
2021/03/12 04:36:40;;;;;;;0.20;0.20;;;;;;;;;;5090533;28;20400;-64
2021/03/12 04:39:05;;;;;;;0.20;0.20;;;;;;;;;;5090448;28;20396;-64
2021/03/12 04:41:30;;;;;;;0.20;0.20;;;;;;;;;;5082721;28;20043;-64
2021/03/12 04:43:55;;;;;;;0.20;0.20;;;;;;;;;;5086175;28;20039;-65
2021/03/12 04:46:20;;;;;;;0.20;0.20;;;;;;;;;;5091663;28;20016;-64
2021/03/12 04:48:46;;;;;;;0.20;0.20;;;;;;;;;;5094651;28;20290;-64
2021/03/12 04:51:11;;;;;;;0.20;0.20;;;;;;;;;;5095670;28;20028;-64
2021/03/12 04:53:38;;;;;;;0.20;0.20;;;;;;;;;;5096667;28;20030;-64
2021/03/12 04:56:03;;;;;;;0.20;0.20;;;;;;;;;;5090719;28;20375;-64
2021/03/12 04:58:30;;;;;;;0.20;0.20;;;;;;;;;;5090791;28;20016;-64
2021/03/12 05:00:56;;;;;;;0.20;0.20;;;;;;;;;;5081240;28;21434;-64
2021/03/12 05:03:21;;;;;;;0.20;0.20;;;;;;;;;;5101017;28;20024;-64
2021/03/12 05:05:46;;;;;;;0.20;0.20;;;;;;;;;;5109870;28;20018;-64
2021/03/12 05:08:12;;;;;;;0.20;0.20;;;;;;;;;;5086227;28;20661;-72
2021/03/12 05:10:37;;;;;;;0.20;0.20;;;;;;;;;;5111124;28;20055;-72
2021/03/12 05:13:05;;;;;;;0.20;0.20;;;;;;;;;;5097673;28;20024;-72
2021/03/12 05:15:30;;;;;;;0.20;0.20;;;;;;;;;;5116462;28;20016;-71
2021/03/12 05:17:56;;;;;;;0.27;0.27;;;;;;;;;;5123218;28;20042;-72
2021/03/12 05:20:21;;;;;;;0.20;0.20;;;;;;;;;;5120621;28;20284;-73
2021/03/12 05:22:46;;;;;;;0.20;0.20;;;;;;;;;;5101784;28;20800;-71
2021/03/12 05:25:11;;;;;;;0.20;0.20;;;;;;;;;;5095577;28;20102;-71
2021/03/12 05:27:36;;;;;;;0.20;0.20;;;;;;;;;;5100831;28;20024;-71
2021/03/12 05:30:02;;;;;;;0.20;0.20;;;;;;;;;;5098475;28;20365;-70
2021/03/12 05:32:27;;;;;;;0.30;0.30;;;;;;;;;;5099331;28;20039;-71
2021/03/12 05:34:53;;;;;;;0.20;0.20;;;;;;;;;;5096736;28;20023;-71
2021/03/12 05:37:18;;;;;;;0.20;0.20;;;;;;;;;;5101177;28;20301;-71
2021/03/12 05:39:43;;;;;;;0.20;0.20;;;;;;;;;;5093457;28;20322;-71
2021/03/12 05:42:10;;;;;;;0.20;0.20;;;;;;;;;;5096312;28;20464;-70
2021/03/12 05:44:35;;;;;;;0.20;0.20;;;;;;;;;;5103185;28;20132;-70
2021/03/12 05:47:05;;;;;;;0.20;0.20;;;;;;;;;;5104507;28;20495;-70
2021/03/12 05:49:30;;;;;;;0.30;0.30;;;;;;;;;;5097586;28;20662;-62
2021/03/12 05:51:55;;;;;;;0.20;0.20;;;;;;;;;;5104889;28;20007;-61
2021/03/12 05:54:20;;;;;;;0.20;0.20;;;;;;;;;;5092633;28;20085;-62
2021/03/12 05:56:45;;;;;;;0.30;0.30;;;;;;;;;;5108694;28;20788;-62
2021/03/12 05:59:10;;;;;;;0.23;0.23;;;;;;;;;;5086554;28;20494;-62
2021/03/12 06:01:38;;;;;;;0.20;0.20;;;;;;;;;;5088322;28;20364;-62
2021/03/12 06:04:03;;;;;;;0.30;0.30;;;;;;;;;;5104311;28;20040;-62
2021/03/12 06:06:29;;;;;;;0.20;0.20;;;;;;;;;;5080568;28;20365;-62
2021/03/12 06:08:54;;;;;;;0.30;0.30;;;;;;;;;;5105434;28;20034;-62
2021/03/12 06:11:19;;;;;;;0.20;0.20;;;;;;;;;;5106712;28;20088;-62
2021/03/12 06:13:54;;;;;;;0.28;0.28;;;;;;;;;;5100694;28;20456;-62
2021/03/12 06:16:20;;;;;;;0.20;0.20;;;;;;;;;;5100543;28;20012;-62
2021/03/12 06:18:48;;;;;;;0.20;0.20;;;;;;;;;;5094517;28;20088;-63
2021/03/12 06:21:26;;;;;;;0.20;0.20;;;;;;;;;;5088805;28;20488;-62
2021/03/12 06:23:51;;;;;;;0.22;0.22;;;;;;;;;;5103317;28;20070;-62
2021/03/12 06:26:16;;;;;;;0.20;0.20;;;;;;;;;;5103196;28;20019;-62
2021/03/12 06:28:41;;;;;;;0.20;0.20;;;;;;;;;;5082722;28;20765;-62
2021/03/12 06:31:26;;;;;;;0.20;0.20;;;;;;;;;;5083174;28;20020;-63
2021/03/12 06:33:51;;;;;;;0.20;0.20;;;;;;;;;;5105716;28;20822;-63
2021/03/12 06:36:29;;;;;;;0.20;0.20;;;;;;;;;;5085449;28;20023;-62
2021/03/12 06:38:57;;;;;;;0.20;0.20;;;;;;;;;;5102893;28;20312;-62
2021/03/12 06:41:41;;;;;;;0.20;0.20;;;;;;;;;;5086936;28;20066;-63
2021/03/12 06:44:25;;;;;;;0.20;0.20;;;;;;;;;;5105904;28;20078;-63
2021/03/12 06:46:50;;;;;;;0.20;0.20;;;;;;;;;;5098068;28;20029;-62
2021/03/12 06:49:15;;;;;;;0.20;0.20;;;;;;;;;;5086902;28;20024;-62
2021/03/12 06:52:00;;;;;;;0.23;0.23;;;;;;;;;;5099083;28;20320;-63
2021/03/12 06:54:26;;;;;;;0.20;0.20;;;;;;;;;;5105368;28;20322;-62
2021/03/12 06:56:51;;;;;;;0.20;0.20;;;;;;;;;;5088255;28;20622;-62
2021/03/12 06:59:29;;;;;;;0.20;0.20;;;;;;;;;;5091981;28;20024;-62
2021/03/12 07:02:01;;;;;;;0.30;0.30;;;;;;;;;;5083693;28;20012;-63
2021/03/12 07:04:27;;;;;;;0.30;0.30;;;;;;;;;;5084204;28;20027;-62
2021/03/12 07:06:55;;;;;;;0.20;0.20;;;;;;;;;;5093948;28;20106;-62
2021/03/12 07:09:20;;;;;;;0.20;0.20;;;;;;;;;;5103316;28;20108;-62
2021/03/12 07:11:52;;;;;;;0.20;0.20;;;;;;;;;;5098568;28;20048;-62
2021/03/12 07:14:18;;;;;;;0.20;0.20;;;;;;;;;;5093887;28;20387;-62
2021/03/12 07:16:43;;;;;;;0.20;0.20;;;;;;;;;;5104135;28;20037;-62
2021/03/12 07:19:08;;;;;;;0.20;0.20;;;;;;;;;;5098806;28;20277;-62
2021/03/12 07:21:33;;;;;;;0.30;0.30;;;;;;;;;;5105359;28;20997;-62
2021/03/12 07:23:59;;;;;;;0.20;0.20;;;;;;;;;;5098961;28;20284;-62
2021/03/12 07:26:24;;;;;;;0.20;0.20;;;;;;;;;;5102529;28;20629;-61
2021/03/12 07:28:50;;;;;;;0.20;0.20;;;;;;;;;;5103174;28;20501;-61
2021/03/12 07:31:16;;;;;;;0.20;0.20;;;;;;;;;;5084386;28;20094;-62
2021/03/12 07:33:42;;;;;;;0.20;0.20;;;;;;;;;;5102108;28;20411;-62
2021/03/12 07:36:08;;;;;;;0.20;0.20;;;;;;;;;;5104441;28;20011;-62
2021/03/12 07:38:35;;;;;;;0.20;0.20;;;;;;;;;;5100652;28;20059;-63
2021/03/12 07:41:04;;;;;;;0.20;0.20;;;;;;;;;;5103738;28;20549;-63
2021/03/12 07:43:32;;;;;;;0.20;0.20;;;;;;;;;;5104339;28;20030;-64
2021/03/12 07:45:57;;;;;;;0.20;0.20;;;;;;;;;;5098620;28;20047;-63
2021/03/12 07:48:28;;;;;;;0.20;0.20;;;;;;;;;;5102762;28;20031;-63
2021/03/12 07:51:06;;;;;;;0.20;0.20;;;;;;;;;;5099419;28;20696;-62
2021/03/12 07:53:51;;;;;;;0.20;0.20;;;;;;;;;;5105653;28;20028;-63
2021/03/12 07:56:17;;;;;;;0.20;0.20;;;;;;;;;;5101632;28;20035;-63
2021/03/12 07:58:52;;;;;;;0.30;0.30;;;;;;;;;;5087027;28;20464;-62
2021/03/12 08:01:18;;;;;;;0.10;0.10;;;;;;;;;;5099012;28;20039;-63
2021/03/12 08:03:43;;;;;;;0.20;0.20;;;;;;;;;;5086966;28;20028;-62
2021/03/12 08:06:17;;;;;;;0.20;0.20;;;;;;;;;;5100827;28;20020;-64
2021/03/12 08:08:43;;;;;;;0.10;0.10;;;;;;;;;;5100056;28;20027;-63
2021/03/12 08:11:28;;;;;;;0.20;0.20;;;;;;;;;;5099156;28;20024;-63
2021/03/12 08:14:09;;;;;;;0.20;0.20;;;;;;;;;;5100704;28;20024;-63
2021/03/12 08:16:53;;;;;;;0.20;0.20;;;;;;;;;;5101161;28;20440;-62
2021/03/12 08:19:31;;;;;;;0.20;0.20;;;;;;;;;;5099663;28;20099;-63
2021/03/12 08:21:57;;;;;;;0.20;0.20;;;;;;;;;;5101916;28;20026;-62
2021/03/12 08:24:41;;;;;;;0.20;0.20;;;;;;;;;;5102758;28;20110;-62
2021/03/12 08:27:06;;;;;;;0.20;0.20;;;;;;;;;;5102744;28;20028;-63
2021/03/12 08:29:38;;;;;;;0.30;0.30;;;;;;;;;;5101632;28;20032;-62
2021/03/12 08:32:23;;;;;;;0.20;0.20;;;;;;;;;;5104168;28;20095;-62
2021/03/12 08:34:48;;;;;;;0.20;0.20;;;;;;;;;;5081777;28;20030;-62
2021/03/12 08:37:26;;;;;;;0.20;0.20;;;;;;;;;;5101518;27;20102;-63
2021/03/12 08:40:26;;;;;;;0.20;0.20;;;;;;;;;;5098316;28;20444;-62
2021/03/12 08:42:55;;;;;;;0.20;0.20;;;;;;;;;;5027743;28;20032;-63
2021/03/12 08:45:39;;;;;;;0.20;0.20;;;;;;;;;;5081157;28;20142;-62
2021/03/12 08:48:08;;;;;;;0.20;0.20;;;;;;;;;;5100870;28;20023;-62
2021/03/12 08:50:49;;;;;;;0.20;0.20;;;;;;;;;;5099020;28;20128;-63
2021/03/12 08:53:14;;;;;;;0.20;0.20;;;;;;;;;;5096612;28;20020;-62
2021/03/12 08:55:42;;;;;;;0.10;0.10;;;;;;;;;;5096207;28;20022;-62
2021/03/12 08:58:10;;;;;;;0.20;0.20;;;;;;;;;;5100141;28;20650;-64
2021/03/12 09:00:35;;;;;;;0.20;0.20;;;;;;;;;;5100169;28;20059;-62
2021/03/12 09:03:17;;;;;;;0.20;0.20;;;;;;;;;;5103243;28;20052;-62
2021/03/12 09:05:43;;;;;;;0.20;0.20;;;;;;;;;;5103143;28;20277;-62
2021/03/12 09:08:08;;;;;;;0.20;0.20;;;;;;;;;;5096058;28;20038;-62
2021/03/12 09:10:33;;;;;;;0.20;0.20;;;;;;;;;;5081740;28;20112;-62
2021/03/12 09:12:58;;;;;;;0.20;0.20;;;;;;;;;;5097673;28;20027;-62
2021/03/12 09:15:24;;;;;;;0.20;0.20;;;;;;;;;;5099443;28;20085;-62
2021/03/12 09:17:49;;;;;;;0.20;0.20;;;;;;;;;;5084518;28;20274;-62
2021/03/12 09:20:15;;;;;;;0.20;0.20;;;;;;;;;;5101823;28;20039;-62
2021/03/12 09:22:48;;;;;;;0.20;0.20;;;;;;;;;;5098938;28;20032;-61
2021/03/12 09:25:13;;;;;;;0.20;0.20;;;;;;;;;;5095334;28;20051;-62
2021/03/12 09:27:38;;;;;;;0.20;0.20;;;;;;;;;;5099368;28;20443;-62
2021/03/12 09:30:04;;;;;;;0.20;0.20;;;;;;;;;;5076340;28;20266;-62
2021/03/12 09:32:36;;;;;;;0.15;0.15;;;;;;;;;;5096844;28;20443;-62
2021/03/12 09:35:14;;;;;;;0.20;0.20;;;;;;;;;;5097546;28;20074;-62
2021/03/12 09:37:41;;;;;;;0.20;0.20;;;;;;;;;;5102600;28;20405;-61
2021/03/12 09:40:06;;;;;;;0.10;0.10;;;;;;;;;;5098705;28;20029;-62
2021/03/12 09:42:31;;;;;;;0.20;0.20;;;;;;;;;;5098309;28;20561;-62
2021/03/12 09:44:59;;;;;;;0.20;0.20;;;;;;;;;;5098325;28;20036;-62
2021/03/12 09:47:24;;;;;;;0.20;0.20;;;;;;;;;;5099420;28;20629;-62
2021/03/12 09:49:52;;;;;;;0.10;0.10;;;;;;;;;;5101566;28;20028;-62
2021/03/12 09:52:18;;;;;;;0.10;0.10;;;;;;;;;;5084531;28;20269;-63
2021/03/12 09:54:44;;;;;;;0.10;0.10;;;;;;;;;;5100743;28;20098;-62
2021/03/12 09:57:09;;;;;;;0.17;0.17;;;;;;;;;;5101983;28;20134;-63
2021/03/12 09:59:38;;;;;;;0.10;0.10;;;;;;;;;;5102210;28;20539;-62
2021/03/12 10:02:03;;;;;;;0.10;0.10;;;;;;;;;;5086807;28;20027;-63
2021/03/12 10:04:38;;;;;;;0.10;0.10;;;;;;;;;;5117224;28;20055;-63
2021/03/12 10:07:10;;;;;;;0.10;0.10;;;;;;;;;;5107856;28;20767;-62
2021/03/12 10:09:36;;;;;;;0.17;0.17;;;;;;;;;;5097214;28;20420;-62
2021/03/12 10:12:01;;;;;;;0.10;0.10;;;;;;;;;;5097650;28;20046;-62
2021/03/12 10:14:27;;;;;;;0.10;0.10;;;;;;;;;;5099655;28;20019;-62
2021/03/12 10:17:05;;;;;;;0.10;0.10;;;;;;;;;;5103188;28;20046;-62
2021/03/12 10:19:48;;;;;;;0.10;0.10;;;;;;;;;;5102495;28;20023;-63
2021/03/12 10:22:22;;;;;;;0.10;0.10;;;;;;;;;;5098184;28;20024;-62
2021/03/12 10:24:53;;;;;;;0.10;0.10;;;;;;;;;;5097008;28;20023;-62
2021/03/12 10:27:19;;;;;;;0.10;0.10;;;;;;;;;;5103547;28;20027;-62
2021/03/12 10:29:44;;;;;;;0.10;0.10;;;;;;;;;;5104339;28;20364;-62
2021/03/12 10:32:13;;;;;;;0.10;0.10;;;;;;;;;;5101124;28;20081;-62
2021/03/12 10:34:42;;;;;;;0.10;0.10;;;;;;;;;;5105117;28;20527;-63
2021/03/12 10:37:14;;;;;;;0.10;0.10;;;;;;;;;;5105253;28;20638;-62
2021/03/12 10:39:46;;;;;;;0.10;0.10;;;;;;;;;;5102842;28;20430;-64
2021/03/12 10:42:14;;;;;;;0.10;0.10;;;;;;;;;;5105869;28;20023;-64
2021/03/12 10:44:49;;;;;;;0.10;0.10;;;;;;;;;;5105481;28;20877;-64
2021/03/12 10:47:14;;;;;;;0.10;0.10;;;;;;;;;;5087755;28;20519;-64
2021/03/12 10:49:40;;;;;;;0.10;0.10;;;;;;;;;;5105327;28;20107;-65
2021/03/12 10:52:05;;;;;;;0.10;0.10;;;;;;;;;;5101467;28;20110;-65
2021/03/12 10:54:30;;;;;;;0.10;0.10;;;;;;;;;;5088673;28;20106;-66
2021/03/12 10:56:55;;;;;;;0.10;0.10;;;;;;;;;;5104968;28;20288;-65
2021/03/12 10:59:20;;;;;;;0.10;0.10;;;;;;;;;;5104754;28;20377;-65
2021/03/12 11:01:48;;;;;;;0.20;0.20;;;;;;;;;;5101872;28;20281;-65
2021/03/12 11:04:16;;;;;;;0.10;0.10;;;;;;;;;;5101335;28;20027;-65
2021/03/12 11:06:42;;;;;;;0.10;0.10;;;;;;;;;;5099558;28;20011;-65
2021/03/12 11:09:10;;;;;;;0.10;0.10;;;;;;;;;;5098618;28;20146;-66
2021/03/12 11:11:40;;;;;;;0.10;0.10;;;;;;;;;;5085209;28;20025;-66
2021/03/12 11:14:06;;;;;;;0.10;0.10;;;;;;;;;;5103792;28;20024;-66
2021/03/12 11:16:31;;;;;;;0.10;0.10;;;;;;;;;;5099292;28;20031;-66
2021/03/12 11:18:56;;;;;;;0.10;0.10;;;;;;;;;;5086451;28;20026;-66
2021/03/12 11:21:24;;;;;;;0.10;0.10;;;;;;;;;;5102443;28;20076;-67
2021/03/12 11:23:49;;;;;;;0.10;0.10;;;;;;;;;;5102951;28;20042;-67
2021/03/12 11:26:14;;;;;;;0.10;0.10;;;;;;;;;;5101022;28;20024;-67
2021/03/12 11:28:39;;;;;;;0.10;0.10;;;;;;;;;;5105627;28;20324;-66
2021/03/12 11:31:04;;;;;;;0.10;0.10;;;;;;;;;;5083484;28;20023;-67
2021/03/12 11:33:33;;;;;;;0.10;0.10;;;;;;;;;;5102829;28;20477;-67
2021/03/12 11:35:58;;;;;;;0.10;0.10;;;;;;;;;;5104769;28;20281;-67
2021/03/12 11:38:23;;;;;;;0.10;0.10;;;;;;;;;;5099830;28;20160;-67
2021/03/12 11:40:48;;;;;;;0.10;0.10;;;;;;;;;;5104636;28;20399;-68
2021/03/12 11:43:13;;;;;;;0.10;0.10;;;;;;;;;;5107703;28;20296;-67
2021/03/12 11:45:39;;;;;;;0.10;0.10;;;;;;;;;;5082869;28;20278;-67
2021/03/12 11:48:06;;;;;;;0.15;0.15;;;;;;;;;;5104360;28;20028;-68
2021/03/12 11:50:31;;;;;;;0.10;0.10;;;;;;;;;;5090192;28;20089;-68
2021/03/12 11:52:56;;;;;;;0.10;0.10;;;;;;;;;;5104052;28;20020;-67
2021/03/12 11:55:22;;;;;;;0.10;0.10;;;;;;;;;;5101669;28;20024;-67
2021/03/12 11:57:47;;;;;;;0.10;0.10;;;;;;;;;;5102212;28;20663;-67
2021/03/12 12:00:13;;;;;;;0.10;0.10;;;;;;;;;;5086304;28;20077;-67
2021/03/12 12:02:38;;;;;;;0.10;0.10;;;;;;;;;;5101340;28;20016;-67
2021/03/12 12:05:05;;;;;;;0.10;0.10;;;;;;;;;;5102898;28;20024;-67
2021/03/12 12:07:30;;;;;;;0.10;0.10;;;;;;;;;;5087106;28;20055;-68
2021/03/12 12:09:56;;;;;;;0.10;0.10;;;;;;;;;;5099592;28;20051;-67
2021/03/12 12:12:21;;;;;;;0.10;0.10;;;;;;;;;;5102576;28;20621;-67
2021/03/12 12:14:46;;;;;;;0.10;0.10;;;;;;;;;;5102218;28;20292;-67
2021/03/12 12:17:11;;;;;;;0.10;0.10;;;;;;;;;;5103415;28;21649;-68
2021/03/12 12:19:37;;;;;;;0.00;0.00;;;;;;;;;;5096505;28;20965;-67
2021/03/12 12:22:02;;;;;;;0.10;0.10;;;;;;;;;;5098658;28;20279;-67
2021/03/12 12:24:27;;;;;;;0.10;0.10;;;;;;;;;;5084836;28;20039;-67
2021/03/12 12:26:53;;;;;;;0.00;0.00;;;;;;;;;;5100295;28;20607;-67
2021/03/12 12:29:18;;;;;;;0.10;0.10;;;;;;;;;;5102250;28;20388;-67
2021/03/12 12:31:43;;;;;;;0.10;0.10;;;;;;;;;;5099742;28;20035;-68
2021/03/12 12:34:11;;;;;;;0.00;0.00;;;;;;;;;;5103012;28;20016;-67
2021/03/12 12:36:37;;;;;;;0.10;0.10;;;;;;;;;;5104961;28;20463;-68
2021/03/12 12:39:03;;;;;;;0.10;0.10;;;;;;;;;;5083196;28;20027;-68
2021/03/12 12:41:28;;;;;;;0.10;0.10;;;;;;;;;;5104378;28;20364;-67
2021/03/12 12:43:54;;;;;;;0.00;0.00;;;;;;;;;;5097462;28;20094;-67
2021/03/12 12:46:19;;;;;;;0.00;0.00;;;;;;;;;;5098215;28;20044;-68
2021/03/12 12:48:44;;;;;;;0.00;0.00;;;;;;;;;;5100373;28;20052;-68
2021/03/12 12:51:09;;;;;;;0.00;0.00;;;;;;;;;;5100413;28;20440;-68
2021/03/12 12:53:35;;;;;;;0.00;0.00;;;;;;;;;;5102026;28;20820;-68
2021/03/12 12:56:00;;;;;;;0.00;0.00;;;;;;;;;;5101775;28;20484;-67
2021/03/12 12:58:25;;;;;;;0.00;0.00;;;;;;;;;;5100497;28;20043;-67
2021/03/12 13:00:53;;;;;;;0.00;0.00;;;;;;;;;;5100391;28;20745;-67
2021/03/12 13:03:19;;;;;;;0.00;0.00;;;;;;;;;;5095838;28;20598;-67
2021/03/12 13:05:44;;;;;;;0.00;0.00;;;;;;;;;;5098802;28;20020;-67
2021/03/12 13:08:10;;;;;;;0.00;0.00;;;;;;;;;;5098147;28;20425;-67
2021/03/12 13:10:35;;;;;;;0.10;0.10;;;;;;;;;;5098340;28;20839;-67
2021/03/12 13:13:00;;;;;;;0.10;0.10;;;;;;;;;;5098683;28;20019;-67
2021/03/12 13:15:25;;;;;;;0.10;0.10;;;;;;;;;;5098421;28;20035;-68
2021/03/12 13:17:51;;;;;;;0.00;0.00;;;;;;;;;;5099806;28;20031;-68
2021/03/12 13:20:22;;;;;;;0.00;0.00;;;;;;;;;;5101188;28;20021;-67
2021/03/12 13:22:48;;;;;;;0.10;0.10;;;;;;;;;;5080058;28;20018;-67
2021/03/12 13:25:13;;;;;;;0.00;0.00;;;;;;;;;;5102939;28;20015;-73
2021/03/12 13:27:39;;;;;;;0.10;0.10;;;;;;;;;;5101861;28;20012;-73
2021/03/12 13:30:05;;;;;;;0.10;0.10;;;;;;;;;;5105720;28;20023;-73
2021/03/12 13:32:30;;;;;;;0.00;0.00;;;;;;;;;;5101323;28;20020;-73
2021/03/12 13:34:55;;;;;;;0.03;0.03;;;;;;;;;;5102052;28;20380;-73
2021/03/12 13:37:23;;;;;;;0.00;0.00;;;;;;;;;;5102859;28;20031;-73
2021/03/12 13:39:49;;;;;;;0.10;0.10;;;;;;;;;;5101682;28;20622;-74
2021/03/12 13:42:14;;;;;;;0.05;0.05;;;;;;;;;;5101898;28;20027;-72
2021/03/12 13:44:39;;;;;;;0.00;0.00;;;;;;;;;;5100143;28;20024;-73
2021/03/12 13:47:04;;;;;;;0.00;0.00;;;;;;;;;;5100730;28;20043;-72
2021/03/12 13:49:29;;;;;;;0.00;0.00;;;;;;;;;;5101527;28;21101;-72
2021/03/12 13:51:55;;;;;;;0.00;0.00;;;;;;;;;;5086435;28;20274;-73
2021/03/12 13:54:23;;;;;;;0.00;0.00;;;;;;;;;;5101630;28;20439;-73
2021/03/12 13:56:48;;;;;;;0.10;0.10;;;;;;;;;;5103536;28;20480;-73
2021/03/12 13:59:14;;;;;;;0.05;0.05;;;;;;;;;;5100168;28;20027;-73
2021/03/12 14:01:39;;;;;;;0.10;0.10;;;;;;;;;;5084895;28;20028;-73
2021/03/12 14:04:04;;;;;;;0.00;0.00;;;;;;;;;;5091480;28;20020;-73
2021/03/12 14:06:30;;;;;;;0.10;0.10;;;;;;;;;;5106649;28;20076;-72
2021/03/12 14:08:55;;;;;;;0.10;0.10;;;;;;;;;;5106491;28;20026;-73
2021/03/12 14:11:20;;;;;;;0.10;0.10;;;;;;;;;;5105064;28;20043;-73
2021/03/12 14:13:45;;;;;;;0.10;0.10;;;;;;;;;;5109961;28;20765;-73
2021/03/12 14:16:10;;;;;;;0.10;0.10;;;;;;;;;;5108805;28;20278;-73
2021/03/12 14:18:35;;;;;;;0.10;0.10;;;;;;;;;;5105244;28;20342;-72
2021/03/12 14:21:01;;;;;;;0.10;0.10;;;;;;;;;;5106583;28;20837;-71
2021/03/12 14:23:27;;;;;;;0.10;0.10;;;;;;;;;;5106271;28;20278;-73
2021/03/12 14:25:54;;;;;;;0.10;0.10;;;;;;;;;;5106279;28;20081;-72
2021/03/12 14:28:19;;;;;;;0.10;0.10;;;;;;;;;;5089381;28;20019;-72
2021/03/12 14:30:44;;;;;;;0.10;0.10;;;;;;;;;;5106392;28;20390;-73
2021/03/12 14:33:09;;;;;;;0.10;0.10;;;;;;;;;;5104434;28;20320;-73
2021/03/12 14:35:35;;;;;;;0.10;0.10;;;;;;;;;;5108162;28;20019;-73
2021/03/12 14:38:03;;;;;;;0.10;0.10;;;;;;;;;;5106425;28;20302;-71
2021/03/12 14:40:28;;;;;;;0.10;0.10;;;;;;;;;;5103075;28;20490;-72
2021/03/12 14:42:53;;;;;;;0.00;0.00;;;;;;;;;;5108029;28;20112;-72